Time;durP1;ratioP1;P1;durP2;ratioP2;P2;SDS_P1;SDS_P2;PMS_P1;PMS_P2;Temp;Humidity;BMP_temperature;BMP_pressure;BME280_temperature;BME280_humidity;BME280_pressure;Samples;Min_cycle;Max_cycle;Signal;HPM_P1;HPM_P2
2024/02/26 00:00:37;;;;;;;19.23;2.72;;;;;;;;;;4995450;28;20090;-77
2024/02/26 00:03:04;;;;;;;13.18;2.50;;;;;;;;;;4994980;28;20047;-76
2024/02/26 00:05:31;;;;;;;14.27;2.53;;;;;;;;;;4995279;28;20042;-77
2024/02/26 00:07:58;;;;;;;13.32;2.55;;;;;;;;;;4995289;28;20070;-79
2024/02/26 00:10:28;;;;;;;21.13;2.50;;;;;;;;;;4994778;28;20045;-77
2024/02/26 00:12:55;;;;;;;14.52;2.65;;;;;;;;;;4995152;28;20050;-78
2024/02/26 00:15:22;;;;;;;17.05;2.22;;;;;;;;;;4994668;28;20057;-77
2024/02/26 00:17:49;;;;;;;14.13;2.15;;;;;;;;;;4995232;28;20046;-78
2024/02/26 00:20:16;;;;;;;11.95;1.80;;;;;;;;;;4993797;28;20054;-78
2024/02/26 00:22:42;;;;;;;14.40;2.10;;;;;;;;;;4995136;28;20116;-78
2024/02/26 00:25:09;;;;;;;15.50;2.45;;;;;;;;;;4994469;28;20042;-77
2024/02/26 00:27:36;;;;;;;12.40;1.92;;;;;;;;;;4995124;28;20100;-78
2024/02/26 00:30:03;;;;;;;15.57;2.00;;;;;;;;;;4995096;28;20042;-78
2024/02/26 00:32:30;;;;;;;18.75;2.50;;;;;;;;;;4994516;28;20069;-77
2024/02/26 00:34:56;;;;;;;17.98;2.30;;;;;;;;;;4994756;28;20048;-78
2024/02/26 00:37:23;;;;;;;25.83;3.25;;;;;;;;;;4994483;28;20046;-76
2024/02/26 00:39:50;;;;;;;18.63;2.65;;;;;;;;;;4994657;28;20042;-77
2024/02/26 00:42:17;;;;;;;18.98;2.63;;;;;;;;;;4994114;28;20045;-78
2024/02/26 00:44:43;;;;;;;23.55;3.15;;;;;;;;;;4994681;28;20088;-77
2024/02/26 00:47:10;;;;;;;19.30;2.88;;;;;;;;;;4994260;28;20046;-77
2024/02/26 00:49:37;;;;;;;19.08;3.10;;;;;;;;;;4994458;28;20046;-78
2024/02/26 00:52:04;;;;;;;22.80;2.42;;;;;;;;;;4994136;28;20038;-78
2024/02/26 00:54:31;;;;;;;16.92;3.03;;;;;;;;;;4994441;28;20469;-78
2024/02/26 00:56:58;;;;;;;29.20;2.80;;;;;;;;;;4994216;28;20389;-78
2024/02/26 00:59:24;;;;;;;21.40;3.00;;;;;;;;;;4994065;28;20141;-77
2024/02/26 01:01:51;;;;;;;14.77;2.45;;;;;;;;;;4994364;28;20043;-77
2024/02/26 01:04:18;;;;;;;21.02;3.45;;;;;;;;;;4976540;28;20477;-78
2024/02/26 01:06:44;;;;;;;23.45;3.45;;;;;;;;;;4994245;28;20073;-78
2024/02/26 01:09:11;;;;;;;24.20;4.25;;;;;;;;;;4993588;28;20113;-77
2024/02/26 01:11:38;;;;;;;26.92;3.58;;;;;;;;;;4994208;28;20230;-78
2024/02/26 01:14:06;;;;;;;19.52;3.90;;;;;;;;;;4993485;28;20092;-79
2024/02/26 01:16:32;;;;;;;20.45;4.35;;;;;;;;;;4994057;28;20392;-77
2024/02/26 01:18:59;;;;;;;29.63;5.18;;;;;;;;;;4993874;28;20069;-78
2024/02/26 01:21:29;;;;;;;19.77;4.35;;;;;;;;;;4993469;28;20054;-78
2024/02/26 01:23:55;;;;;;;16.58;4.85;;;;;;;;;;4994106;28;20042;-78
2024/02/26 01:26:22;;;;;;;23.52;4.57;;;;;;;;;;4993272;28;20107;-77
2024/02/26 01:28:49;;;;;;;29.83;4.50;;;;;;;;;;4993888;28;20043;-77
2024/02/26 01:31:15;;;;;;;27.02;4.13;;;;;;;;;;4993475;28;20096;-77
2024/02/26 01:33:42;;;;;;;24.92;3.90;;;;;;;;;;4993781;28;20054;-78
2024/02/26 01:36:09;;;;;;;16.52;3.05;;;;;;;;;;4993304;28;20054;-78
2024/02/26 01:38:36;;;;;;;15.82;2.75;;;;;;;;;;4993678;28;20046;-78
2024/02/26 01:41:03;;;;;;;9.02;2.40;;;;;;;;;;4993438;28;20042;-77
2024/02/26 01:43:29;;;;;;;12.18;1.73;;;;;;;;;;4993078;28;20058;-79
2024/02/26 01:45:56;;;;;;;10.15;1.90;;;;;;;;;;4993647;28;20042;-78
2024/02/26 01:48:23;;;;;;;6.57;1.90;;;;;;;;;;4993110;28;20101;-77
2024/02/26 01:50:50;;;;;;;6.10;1.45;;;;;;;;;;4993423;28;20129;-78
2024/02/26 01:53:18;;;;;;;4.75;1.02;;;;;;;;;;4975860;28;20101;-78
2024/02/26 01:55:45;;;;;;;3.60;0.82;;;;;;;;;;4993415;28;20049;-79
2024/02/26 01:58:13;;;;;;;3.35;0.60;;;;;;;;;;4992872;28;20042;-78
2024/02/26 02:00:40;;;;;;;3.67;0.57;;;;;;;;;;4993430;28;20054;-78
2024/02/26 02:03:07;;;;;;;2.70;0.52;;;;;;;;;;4993079;28;20489;-78
2024/02/26 02:05:35;;;;;;;3.97;0.70;;;;;;;;;;4993334;28;20050;-77
2024/02/26 02:08:03;;;;;;;5.38;0.73;;;;;;;;;;4993437;28;20052;-79
2024/02/26 02:10:30;;;;;;;4.55;0.57;;;;;;;;;;4992761;28;20054;-78
2024/02/26 02:12:57;;;;;;;2.10;0.70;;;;;;;;;;4993187;28;20043;-79
2024/02/26 02:15:24;;;;;;;5.85;0.65;;;;;;;;;;4992753;28;20047;-79
2024/02/26 02:17:51;;;;;;;8.15;0.80;;;;;;;;;;4993339;28;20425;-78
2024/02/26 02:20:18;;;;;;;2.50;0.50;;;;;;;;;;4992861;28;20038;-79
2024/02/26 02:22:46;;;;;;;4.85;0.90;;;;;;;;;;4993174;28;20478;-77
2024/02/26 02:25:13;;;;;;;6.03;0.80;;;;;;;;;;4992625;28;20073;-78
2024/02/26 02:27:41;;;;;;;9.40;0.82;;;;;;;;;;4993304;28;20057;-79
2024/02/26 02:30:09;;;;;;;7.57;0.80;;;;;;;;;;4992793;28;20038;-79
2024/02/26 02:32:39;;;;;;;6.65;1.10;;;;;;;;;;4993180;28;20051;-78
2024/02/26 02:35:06;;;;;;;6.30;0.90;;;;;;;;;;4992728;28;20046;-78
2024/02/26 02:37:33;;;;;;;5.72;0.88;;;;;;;;;;4975603;28;20404;-78
2024/02/26 02:40:00;;;;;;;9.05;1.10;;;;;;;;;;4993228;28;20129;-78
2024/02/26 02:42:27;;;;;;;6.53;0.70;;;;;;;;;;4992558;28;20137;-78
2024/02/26 02:44:54;;;;;;;7.07;1.63;;;;;;;;;;4995925;28;20076;-78
2024/02/26 02:47:21;;;;;;;7.40;1.08;;;;;;;;;;4996260;28;20050;-78
2024/02/26 02:49:48;;;;;;;5.63;0.65;;;;;;;;;;4996789;28;20070;-78
2024/02/26 02:52:14;;;;;;;5.43;1.00;;;;;;;;;;4979143;28;20046;-78
2024/02/26 02:54:42;;;;;;;8.52;1.20;;;;;;;;;;4996767;28;20054;-79
2024/02/26 02:57:09;;;;;;;6.13;1.00;;;;;;;;;;4996197;28;20042;-77
2024/02/26 02:59:37;;;;;;;3.42;0.45;;;;;;;;;;4996650;28;20438;-78
2024/02/26 03:02:04;;;;;;;4.22;0.60;;;;;;;;;;4996605;28;20046;-77
2024/02/26 03:04:31;;;;;;;5.78;1.20;;;;;;;;;;4996332;28;20133;-77
2024/02/26 03:06:58;;;;;;;8.85;0.85;;;;;;;;;;4979043;28;20053;-78
2024/02/26 03:09:25;;;;;;;5.32;0.80;;;;;;;;;;4995819;28;20087;-78
2024/02/26 03:11:52;;;;;;;4.90;0.80;;;;;;;;;;4995374;28;20104;-77
2024/02/26 03:14:19;;;;;;;8.32;1.02;;;;;;;;;;4995903;28;20112;-78
2024/02/26 03:16:45;;;;;;;5.35;1.08;;;;;;;;;;4996341;28;20050;-79
2024/02/26 03:19:16;;;;;;;7.35;1.00;;;;;;;;;;4995909;28;20047;-77
2024/02/26 03:21:43;;;;;;;6.47;0.90;;;;;;;;;;4996228;28;20068;-78
2024/02/26 03:24:10;;;;;;;9.98;1.65;;;;;;;;;;4995614;28;20038;-78
2024/02/26 03:26:37;;;;;;;9.40;1.33;;;;;;;;;;4996236;28;20129;-78
2024/02/26 03:29:05;;;;;;;8.68;0.98;;;;;;;;;;4995783;28;20053;-77
2024/02/26 03:31:31;;;;;;;7.97;1.25;;;;;;;;;;4995961;28;20414;-78
2024/02/26 03:33:58;;;;;;;9.85;1.20;;;;;;;;;;4994772;28;20078;-79
2024/02/26 03:36:25;;;;;;;8.82;1.45;;;;;;;;;;4995475;28;20062;-78
2024/02/26 03:38:52;;;;;;;9.13;2.45;;;;;;;;;;4995944;28;20042;-77
2024/02/26 03:41:19;;;;;;;10.65;1.85;;;;;;;;;;4995228;28;20031;-77
2024/02/26 03:43:46;;;;;;;9.80;1.77;;;;;;;;;;4995836;28;20141;-78
2024/02/26 03:46:13;;;;;;;7.45;1.02;;;;;;;;;;4995277;28;20039;-78
2024/02/26 03:48:41;;;;;;;6.03;1.05;;;;;;;;;;4995796;28;20088;-78
2024/02/26 03:51:09;;;;;;;7.57;1.00;;;;;;;;;;4995227;28;20121;-77
2024/02/26 03:53:36;;;;;;;8.23;1.10;;;;;;;;;;4995589;28;20050;-78
2024/02/26 03:56:04;;;;;;;7.43;0.90;;;;;;;;;;4994726;28;20520;-77
2024/02/26 03:58:31;;;;;;;7.30;1.15;;;;;;;;;;4995406;28;20367;-77
2024/02/26 04:01:00;;;;;;;6.45;0.85;;;;;;;;;;4995550;28;20054;-78
2024/02/26 04:03:27;;;;;;;9.20;1.52;;;;;;;;;;4995095;28;20050;-78
2024/02/26 04:05:54;;;;;;;7.03;2.03;;;;;;;;;;4994394;28;20042;-77
2024/02/26 04:08:20;;;;;;;8.13;1.27;;;;;;;;;;4994930;28;20543;-77
2024/02/26 04:10:47;;;;;;;8.52;1.35;;;;;;;;;;4995090;28;20101;-78
2024/02/26 04:13:14;;;;;;;9.13;1.60;;;;;;;;;;4994894;28;20170;-78
2024/02/26 04:15:41;;;;;;;4.93;1.10;;;;;;;;;;4995138;28;20077;-78
2024/02/26 04:18:08;;;;;;;2.90;0.98;;;;;;;;;;4977560;28;20130;-78
2024/02/26 04:20:35;;;;;;;6.47;1.08;;;;;;;;;;4995310;28;20053;-77
2024/02/26 04:23:03;;;;;;;5.53;1.17;;;;;;;;;;4995040;28;20422;-78
2024/02/26 04:25:30;;;;;;;6.32;0.82;;;;;;;;;;4994710;28;20050;-78
2024/02/26 04:27:56;;;;;;;4.82;1.42;;;;;;;;;;4994046;28;20046;-77
2024/02/26 04:30:23;;;;;;;6.57;1.10;;;;;;;;;;4994459;28;20045;-77
2024/02/26 04:32:50;;;;;;;4.88;0.90;;;;;;;;;;4994924;28;20081;-77
2024/02/26 04:35:17;;;;;;;6.55;1.65;;;;;;;;;;4994278;28;20097;-78
2024/02/26 04:37:44;;;;;;;7.38;2.25;;;;;;;;;;4994836;28;20064;-78
2024/02/26 04:40:11;;;;;;;8.55;3.35;;;;;;;;;;4994216;28;20131;-78
2024/02/26 04:42:38;;;;;;;12.00;2.83;;;;;;;;;;4994826;28;20650;-78
2024/02/26 04:45:06;;;;;;;10.95;3.47;;;;;;;;;;4994197;28;20046;-77
2024/02/26 04:47:33;;;;;;;3.60;1.17;;;;;;;;;;4977342;28;20092;-79
2024/02/26 04:50:00;;;;;;;8.30;1.38;;;;;;;;;;4994479;28;20038;-78
2024/02/26 04:52:27;;;;;;;4.97;1.08;;;;;;;;;;4992941;28;20049;-78
2024/02/26 04:54:54;;;;;;;6.80;1.70;;;;;;;;;;4994480;28;20081;-78
2024/02/26 04:57:21;;;;;;;6.00;1.10;;;;;;;;;;4976737;28;20049;-78
2024/02/26 04:59:48;;;;;;;9.07;1.35;;;;;;;;;;4994309;28;20050;-78
2024/02/26 05:02:15;;;;;;;3.40;1.30;;;;;;;;;;4992601;28;20046;-78
2024/02/26 05:04:42;;;;;;;5.65;1.75;;;;;;;;;;4994390;28;20492;-78
2024/02/26 05:07:09;;;;;;;9.35;1.33;;;;;;;;;;4993534;28;20347;-77
2024/02/26 05:09:36;;;;;;;4.10;1.10;;;;;;;;;;4993964;28;20038;-78
2024/02/26 05:12:03;;;;;;;4.13;1.10;;;;;;;;;;4994211;28;20049;-78
2024/02/26 05:14:30;;;;;;;5.75;1.30;;;;;;;;;;4992582;28;20053;-77
2024/02/26 05:16:57;;;;;;;6.30;1.60;;;;;;;;;;4994076;28;20042;-77
2024/02/26 05:19:23;;;;;;;6.70;1.70;;;;;;;;;;4993672;28;20049;-78
2024/02/26 05:21:50;;;;;;;10.10;1.90;;;;;;;;;;4993963;28;20057;-77
2024/02/26 05:24:18;;;;;;;15.05;2.00;;;;;;;;;;4993522;28;20448;-78
2024/02/26 05:26:45;;;;;;;9.00;2.00;;;;;;;;;;4974453;28;20042;-78
2024/02/26 05:29:12;;;;;;;16.80;3.20;;;;;;;;;;4974134;28;20134;-77
2024/02/26 05:31:39;;;;;;;12.10;2.22;;;;;;;;;;4957149;28;20034;-78
2024/02/26 05:34:06;;;;;;;10.48;2.50;;;;;;;;;;4979707;28;20035;-79
2024/02/26 05:36:33;;;;;;;13.07;2.65;;;;;;;;;;4993927;28;20457;-77
2024/02/26 05:39:01;;;;;;;16.05;2.60;;;;;;;;;;4993647;28;20046;-78
2024/02/26 05:41:28;;;;;;;17.70;2.80;;;;;;;;;;4993205;28;20054;-77
2024/02/26 05:43:54;;;;;;;20.08;3.40;;;;;;;;;;4993715;28;20042;-78
2024/02/26 05:46:22;;;;;;;11.10;2.72;;;;;;;;;;4992991;28;20125;-78
2024/02/26 05:48:52;;;;;;;13.05;2.35;;;;;;;;;;4993735;28;20427;-78
2024/02/26 05:51:19;;;;;;;15.73;2.83;;;;;;;;;;4993087;28;20038;-78
2024/02/26 05:53:47;;;;;;;14.85;3.20;;;;;;;;;;4993343;28;20081;-78
2024/02/26 05:56:14;;;;;;;13.70;2.67;;;;;;;;;;4992772;28;20046;-78
2024/02/26 05:58:41;;;;;;;14.77;2.28;;;;;;;;;;4993596;28;20104;-78
2024/02/26 06:01:07;;;;;;;11.43;2.28;;;;;;;;;;4993022;28;20035;-77
2024/02/26 06:03:34;;;;;;;19.95;3.08;;;;;;;;;;4992776;28;20054;-77
2024/02/26 06:06:01;;;;;;;14.50;3.05;;;;;;;;;;4993196;28;20046;-79
2024/02/26 06:08:28;;;;;;;16.92;2.95;;;;;;;;;;4975644;28;20043;-78
2024/02/26 06:10:55;;;;;;;18.58;3.10;;;;;;;;;;4993131;28;20039;-77
2024/02/26 06:13:22;;;;;;;15.98;3.25;;;;;;;;;;4993034;28;20045;-78
2024/02/26 06:15:48;;;;;;;12.82;2.58;;;;;;;;;;4993127;28;20375;-77
2024/02/26 06:18:16;;;;;;;11.80;3.15;;;;;;;;;;4992967;28;20050;-78
2024/02/26 06:20:42;;;;;;;12.00;3.42;;;;;;;;;;4997269;28;20100;-79
2024/02/26 06:23:09;;;;;;;19.65;4.10;;;;;;;;;;4996776;28;20070;-78
2024/02/26 06:25:36;;;;;;;16.02;2.53;;;;;;;;;;4997244;28;20108;-79
2024/02/26 06:28:03;;;;;;;25.00;4.32;;;;;;;;;;4997454;28;20114;-78
2024/02/26 06:30:30;;;;;;;19.25;3.47;;;;;;;;;;4997043;28;20046;-78
2024/02/26 06:32:57;;;;;;;29.73;4.10;;;;;;;;;;4997160;28;20038;-78
2024/02/26 06:35:24;;;;;;;18.42;3.33;;;;;;;;;;4996800;28;20042;-78
2024/02/26 06:37:52;;;;;;;19.08;3.97;;;;;;;;;;4997183;28;20046;-78
2024/02/26 06:40:19;;;;;;;22.10;3.20;;;;;;;;;;4996268;28;20046;-78
2024/02/26 06:42:46;;;;;;;21.95;3.83;;;;;;;;;;4997078;28;20042;-78
2024/02/26 06:45:15;;;;;;;20.38;4.03;;;;;;;;;;4995432;28;20053;-79
2024/02/26 06:47:42;;;;;;;19.67;3.70;;;;;;;;;;4996868;28;20166;-77
2024/02/26 06:50:12;;;;;;;23.35;3.70;;;;;;;;;;4978995;28;20050;-78
2024/02/26 06:52:39;;;;;;;19.88;3.80;;;;;;;;;;4996957;28;20054;-78
2024/02/26 06:55:08;;;;;;;22.35;4.05;;;;;;;;;;4996224;28;20395;-77
2024/02/26 06:57:35;;;;;;;17.10;3.67;;;;;;;;;;4996310;28;20477;-78
2024/02/26 07:00:03;;;;;;;21.63;3.45;;;;;;;;;;4996655;28;20046;-78
2024/02/26 07:02:31;;;;;;;28.67;3.22;;;;;;;;;;4995026;28;20104;-78
2024/02/26 07:04:58;;;;;;;26.90;3.88;;;;;;;;;;4996229;28;20081;-78
2024/02/26 07:07:25;;;;;;;26.85;4.35;;;;;;;;;;4995833;28;20077;-78
2024/02/26 07:09:52;;;;;;;22.73;3.75;;;;;;;;;;4993375;28;20042;-78
2024/02/26 07:12:21;;;;;;;21.02;3.53;;;;;;;;;;4995020;28;20050;-79
2024/02/26 07:14:49;;;;;;;28.63;3.67;;;;;;;;;;4995573;28;20042;-83
2024/02/26 07:17:16;;;;;;;19.65;3.55;;;;;;;;;;4986256;28;20109;-79
2024/02/26 07:19:43;;;;;;;19.85;3.30;;;;;;;;;;4991781;28;20038;-78
2024/02/26 07:22:10;;;;;;;25.80;4.53;;;;;;;;;;4993587;28;20157;-79
2024/02/26 07:24:36;;;;;;;22.33;4.07;;;;;;;;;;4989944;28;20046;-79
2024/02/26 07:27:03;;;;;;;23.10;4.50;;;;;;;;;;4994044;28;20050;-78
2024/02/26 07:29:30;;;;;;;16.80;3.67;;;;;;;;;;4993815;28;20425;-79
2024/02/26 07:31:57;;;;;;;23.33;3.95;;;;;;;;;;4994729;28;20042;-78
2024/02/26 07:34:28;;;;;;;21.60;3.85;;;;;;;;;;4993826;28;20056;-79
2024/02/26 07:36:56;;;;;;;18.13;3.08;;;;;;;;;;4993989;28;20109;-79
2024/02/26 07:39:23;;;;;;;16.33;3.47;;;;;;;;;;4994038;28;20141;-79
2024/02/26 07:41:52;;;;;;;21.88;4.00;;;;;;;;;;4994469;28;20129;-79
2024/02/26 07:44:20;;;;;;;23.55;3.80;;;;;;;;;;4993407;28;20080;-79
2024/02/26 07:46:47;;;;;;;20.52;3.22;;;;;;;;;;4990070;28;20430;-79
2024/02/26 07:49:13;;;;;;;14.43;3.53;;;;;;;;;;4980948;28;20048;-78
2024/02/26 07:51:41;;;;;;;15.55;3.15;;;;;;;;;;4987510;28;20043;-78
2024/02/26 07:54:07;;;;;;;21.35;3.03;;;;;;;;;;4985559;28;20041;-78
2024/02/26 07:56:34;;;;;;;17.17;3.60;;;;;;;;;;4993415;28;20050;-79
2024/02/26 07:59:01;;;;;;;22.13;3.42;;;;;;;;;;4994027;28;20050;-79
2024/02/26 08:01:28;;;;;;;18.35;3.83;;;;;;;;;;4989434;28;20625;-79
2024/02/26 08:03:55;;;;;;;19.27;3.28;;;;;;;;;;4966049;28;20493;-78
2024/02/26 08:06:23;;;;;;;18.60;4.38;;;;;;;;;;4992896;28;20097;-79
2024/02/26 08:08:50;;;;;;;24.33;4.22;;;;;;;;;;4988058;28;20422;-78
2024/02/26 08:11:16;;;;;;;17.88;3.92;;;;;;;;;;4991915;28;20065;-79
2024/02/26 08:13:43;;;;;;;20.27;3.65;;;;;;;;;;4985606;28;20069;-78
2024/02/26 08:16:10;;;;;;;21.80;3.75;;;;;;;;;;4993330;28;20038;-79
2024/02/26 08:18:37;;;;;;;19.83;3.17;;;;;;;;;;4993551;28;20051;-79
2024/02/26 08:21:04;;;;;;;18.48;3.88;;;;;;;;;;4987184;28;20043;-78
2024/02/26 08:23:31;;;;;;;17.50;3.95;;;;;;;;;;4979932;28;20141;-78
2024/02/26 08:25:58;;;;;;;16.65;3.47;;;;;;;;;;4993490;28;20038;-79
2024/02/26 08:28:25;;;;;;;16.83;3.17;;;;;;;;;;4992908;28;20046;-79
2024/02/26 08:30:51;;;;;;;15.48;3.40;;;;;;;;;;4987198;28;20046;-79
2024/02/26 08:33:18;;;;;;;18.10;4.13;;;;;;;;;;4989416;28;20042;-79
2024/02/26 08:35:45;;;;;;;18.67;4.47;;;;;;;;;;4985676;28;20043;-78
2024/02/26 08:38:12;;;;;;;16.50;2.90;;;;;;;;;;4975484;28;20096;-78
2024/02/26 08:40:38;;;;;;;13.90;3.22;;;;;;;;;;4992367;28;20072;-79
2024/02/26 08:43:05;;;;;;;13.18;3.15;;;;;;;;;;4992381;28;20038;-79
2024/02/26 08:45:32;;;;;;;15.48;3.10;;;;;;;;;;4983436;28;20063;-79
2024/02/26 08:47:59;;;;;;;13.48;3.53;;;;;;;;;;4989515;28;20046;-79
2024/02/26 08:50:26;;;;;;;14.82;2.97;;;;;;;;;;4982226;28;20373;-79
2024/02/26 08:52:53;;;;;;;20.20;3.20;;;;;;;;;;4983144;28;20039;-79
2024/02/26 08:55:20;;;;;;;15.70;3.03;;;;;;;;;;4988300;28;20049;-78
2024/02/26 08:57:47;;;;;;;16.70;3.30;;;;;;;;;;4991224;28;20038;-79
2024/02/26 09:00:20;;;;;;;17.15;2.92;;;;;;;;;;4988283;28;20080;-79
2024/02/26 09:02:48;;;;;;;14.77;2.78;;;;;;;;;;4992557;28;20034;-77
2024/02/26 09:05:15;;;;;;;18.38;3.20;;;;;;;;;;4991843;28;20053;-77
2024/02/26 09:07:42;;;;;;;21.92;2.90;;;;;;;;;;4994241;28;20058;-79
2024/02/26 09:10:10;;;;;;;16.27;3.42;;;;;;;;;;4974140;28;20039;-78
2024/02/26 09:12:37;;;;;;;15.80;3.10;;;;;;;;;;4974755;28;20047;-78
2024/02/26 09:15:06;;;;;;;22.70;4.00;;;;;;;;;;4984498;28;20054;-77
2024/02/26 09:17:33;;;;;;;14.60;3.13;;;;;;;;;;4980736;28;20148;-78
2024/02/26 09:20:00;;;;;;;23.38;3.75;;;;;;;;;;4993249;28;20080;-78
2024/02/26 09:22:27;;;;;;;16.02;3.70;;;;;;;;;;4990171;28;20446;-78
2024/02/26 09:24:53;;;;;;;14.50;3.53;;;;;;;;;;4992263;28;20042;-78
2024/02/26 09:27:20;;;;;;;24.67;3.15;;;;;;;;;;4976024;28;20039;-79
2024/02/26 09:29:47;;;;;;;17.77;3.13;;;;;;;;;;4974388;28;20066;-79
2024/02/26 09:32:13;;;;;;;25.92;4.35;;;;;;;;;;4983069;28;20385;-78
2024/02/26 09:34:41;;;;;;;26.42;4.20;;;;;;;;;;4984669;28;20430;-79
2024/02/26 09:37:08;;;;;;;20.93;3.27;;;;;;;;;;4988519;28;20038;-79
2024/02/26 09:39:47;;;;;;;23.42;3.75;;;;;;;;;;4982714;28;20043;-79
2024/02/26 09:42:15;;;;;;;27.55;4.07;;;;;;;;;;4987924;28;20042;-78
2024/02/26 09:44:43;;;;;;;28.05;3.67;;;;;;;;;;4974240;28;20081;-79
2024/02/26 09:47:13;;;;;;;19.48;3.97;;;;;;;;;;4991053;28;20046;-78
2024/02/26 09:49:40;;;;;;;24.58;4.20;;;;;;;;;;4992240;28;20097;-78
2024/02/26 09:52:09;;;;;;;22.60;3.60;;;;;;;;;;4993225;28;20073;-78
2024/02/26 09:54:36;;;;;;;21.38;3.55;;;;;;;;;;4992507;28;20129;-77
2024/02/26 09:57:04;;;;;;;31.70;4.05;;;;;;;;;;4993621;28;20042;-78
2024/02/26 09:59:40;;;;;;;18.33;3.25;;;;;;;;;;4993222;28;20038;-77
2024/02/26 10:02:13;;;;;;;29.60;3.45;;;;;;;;;;4993164;28;20105;-79
2024/02/26 10:04:41;;;;;;;20.45;3.22;;;;;;;;;;4993441;28;20042;-77
2024/02/26 10:07:11;;;;;;;15.00;3.20;;;;;;;;;;4993208;28;20046;-77
2024/02/26 10:09:39;;;;;;;18.08;3.78;;;;;;;;;;4993303;28;20544;-77
2024/02/26 10:12:09;;;;;;;15.05;3.47;;;;;;;;;;4991846;28;20522;-79
2024/02/26 10:14:36;;;;;;;19.27;3.33;;;;;;;;;;4993425;28;20056;-77
2024/02/26 10:17:08;;;;;;;22.92;3.90;;;;;;;;;;4993399;28;20043;-79
2024/02/26 10:19:35;;;;;;;18.95;3.25;;;;;;;;;;4993199;28;20069;-77
2024/02/26 10:22:05;;;;;;;27.75;5.22;;;;;;;;;;4991004;28;20046;-79
2024/02/26 10:24:32;;;;;;;20.67;4.30;;;;;;;;;;4992995;28;20053;-77
2024/02/26 10:26:59;;;;;;;25.63;3.80;;;;;;;;;;4993133;28;20101;-77
2024/02/26 10:29:25;;;;;;;27.67;5.15;;;;;;;;;;4991334;28;20073;-78
2024/02/26 10:31:52;;;;;;;19.10;3.78;;;;;;;;;;4992446;28;20046;-78
2024/02/26 10:34:20;;;;;;;20.17;3.42;;;;;;;;;;4991172;28;20049;-78
2024/02/26 10:36:47;;;;;;;28.27;3.40;;;;;;;;;;4996295;28;20417;-78
2024/02/26 10:39:20;;;;;;;15.35;3.13;;;;;;;;;;4992725;28;20364;-78
2024/02/26 10:41:47;;;;;;;22.80;3.42;;;;;;;;;;4992271;28;20034;-78
2024/02/26 10:44:14;;;;;;;19.88;4.03;;;;;;;;;;4992444;28;20566;-77
2024/02/26 10:46:47;;;;;;;17.58;3.17;;;;;;;;;;4993201;28;20069;-77
2024/02/26 10:49:18;;;;;;;32.05;3.08;;;;;;;;;;4988277;28;20429;-77
2024/02/26 10:51:50;;;;;;;19.50;3.25;;;;;;;;;;4973762;28;20418;-77
2024/02/26 10:54:17;;;;;;;20.50;3.15;;;;;;;;;;4975648;28;20035;-78
2024/02/26 10:56:46;;;;;;;14.43;2.80;;;;;;;;;;4979750;28;20489;-78
2024/02/26 10:59:14;;;;;;;;;;;;;;;;;;4973677;28;20345;-77
2024/02/26 11:01:41;;;;;;;17.73;3.45;;;;;;;;;;4984842;28;19952;-78
2024/02/26 11:04:10;;;;;;;17.50;3.13;;;;;;;;;;4981577;28;20046;-78
2024/02/26 11:06:37;;;;;;;;;;;;;;;;;;4991397;28;20101;-77
2024/02/26 11:09:06;;;;;;;15.13;2.40;;;;;;;;;;4987909;28;19964;-76
2024/02/26 11:11:35;;;;;;;18.02;2.95;;;;;;;;;;4981466;28;20050;-77
2024/02/26 11:14:03;;;;;;;22.70;2.97;;;;;;;;;;4983888;28;20057;-77
2024/02/26 11:16:30;;;;;;;12.48;3.10;;;;;;;;;;4987107;28;20047;-77
2024/02/26 11:18:57;;;;;;;20.13;3.33;;;;;;;;;;4983651;28;20382;-77
2024/02/26 11:21:38;;;;;;;16.08;3.17;;;;;;;;;;4989234;28;20417;-78
2024/02/26 11:24:11;;;;;;;17.58;2.75;;;;;;;;;;4987783;28;20090;-77
2024/02/26 11:26:47;;;;;;;26.27;4.60;;;;;;;;;;4995447;28;20046;-78
2024/02/26 11:29:21;;;;;;;19.58;3.63;;;;;;;;;;4993329;28;20039;-77
2024/02/26 11:31:49;;;;;;;16.05;3.45;;;;;;;;;;4996043;28;20050;-77
2024/02/26 11:34:17;;;;;;;19.13;4.43;;;;;;;;;;4993778;28;20046;-78
2024/02/26 11:36:46;;;;;;;21.80;2.63;;;;;;;;;;4982984;28;20047;-78
2024/02/26 11:39:16;;;;;;;18.00;2.55;;;;;;;;;;4982072;28;20046;-77
2024/02/26 11:41:44;;;;;;;16.35;2.75;;;;;;;;;;4996002;28;20042;-78
2024/02/26 11:44:10;;;;;;;19.00;3.20;;;;;;;;;;4984673;28;20043;-77
2024/02/26 11:46:42;;;;;;;19.10;2.65;;;;;;;;;;4991520;28;20046;-77
2024/02/26 11:49:28;;;;;;;20.75;3.13;;;;;;;;;;4990374;28;20097;-77
2024/02/26 11:51:57;;;;;;;19.08;2.92;;;;;;;;;;4987099;28;20046;-77
2024/02/26 11:54:46;;;;;;;13.02;2.67;;;;;;;;;;4986764;28;20071;-77
2024/02/26 11:57:32;;;;;;;16.95;2.50;;;;;;;;;;4975256;28;20352;-78
2024/02/26 12:00:22;;;;;;;21.00;2.90;;;;;;;;;;4976273;28;20053;-78
2024/02/26 12:02:57;;;;;;;20.75;3.05;;;;;;;;;;4974864;28;20054;-77
2024/02/26 12:05:26;;;;;;;21.50;3.08;;;;;;;;;;4982785;28;20141;-77
2024/02/26 12:08:01;;;;;;;;;;;;;;;;;;4998456;28;20038;-78
2024/02/26 12:10:35;;;;;;;19.73;2.90;;;;;;;;;;4987486;28;20330;-78
2024/02/26 12:13:08;;;;;;;17.08;2.28;;;;;;;;;;4988845;28;20046;-77
2024/02/26 12:15:41;;;;;;;15.63;2.42;;;;;;;;;;4992236;28;20038;-77
2024/02/26 12:18:10;;;;;;;21.27;2.75;;;;;;;;;;4993143;28;20038;-77
2024/02/26 12:20:37;;;;;;;12.40;2.65;;;;;;;;;;4993606;28;20133;-77
2024/02/26 12:23:04;;;;;;;13.52;2.38;;;;;;;;;;4994028;28;20046;-78
2024/02/26 12:25:32;;;;;;;13.13;2.25;;;;;;;;;;4989052;28;20030;-78
2024/02/26 12:28:00;;;;;;;19.38;3.17;;;;;;;;;;4993883;28;20042;-77
2024/02/26 12:30:29;;;;;;;16.48;2.67;;;;;;;;;;4993800;28;20057;-77
2024/02/26 12:32:57;;;;;;;15.32;1.95;;;;;;;;;;4992379;28;20065;-77
2024/02/26 12:35:24;;;;;;;19.90;2.92;;;;;;;;;;4993805;28;22427;-77
2024/02/26 12:37:53;;;;;;;20.40;3.05;;;;;;;;;;4990687;28;20061;-77
2024/02/26 12:40:20;;;;;;;;;;;;;;;;;;4992642;28;20657;-77
2024/02/26 12:42:48;;;;;;;17.25;3.10;;;;;;;;;;4992394;28;20293;-77
2024/02/26 12:45:16;;;;;;;17.40;2.63;;;;;;;;;;4992726;28;20042;-77
2024/02/26 12:47:45;;;;;;;11.63;2.10;;;;;;;;;;4991156;28;20069;-77
2024/02/26 12:50:12;;;;;;;15.68;2.42;;;;;;;;;;4987627;28;20043;-76
2024/02/26 12:52:42;;;;;;;11.18;1.70;;;;;;;;;;4991300;28;20034;-77
2024/02/26 12:55:13;;;;;;;18.27;2.00;;;;;;;;;;4990333;28;20474;-78
2024/02/26 12:57:43;;;;;;;15.20;2.08;;;;;;;;;;4992274;28;20038;-77
2024/02/26 13:00:14;;;;;;;12.93;2.38;;;;;;;;;;4992062;28;20030;-78
2024/02/26 13:02:44;;;;;;;11.13;2.65;;;;;;;;;;4986286;28;20038;-78
2024/02/26 13:05:13;;;;;;;15.60;2.60;;;;;;;;;;4984403;28;20093;-77
2024/02/26 13:07:43;;;;;;;13.23;2.83;;;;;;;;;;4991493;28;20378;-78
2024/02/26 13:10:13;;;;;;;11.35;2.30;;;;;;;;;;4990308;28;20476;-78
2024/02/26 13:12:53;;;;;;;14.60;2.47;;;;;;;;;;4991248;28;20047;-78
2024/02/26 13:15:21;;;;;;;19.40;2.33;;;;;;;;;;4989601;28;20085;-77
2024/02/26 13:17:49;;;;;;;15.02;2.20;;;;;;;;;;4991306;28;20447;-77
2024/02/26 13:20:30;;;;;;;12.25;1.92;;;;;;;;;;4991644;28;20034;-78
2024/02/26 13:23:05;;;;;;;11.38;1.77;;;;;;;;;;4981754;28;20047;-78
2024/02/26 13:25:38;;;;;;;18.38;2.72;;;;;;;;;;4991695;28;20152;-78
2024/02/26 13:28:18;;;;;;;17.95;2.30;;;;;;;;;;4991715;28;20052;-78
2024/02/26 13:30:56;;;;;;;14.00;2.00;;;;;;;;;;4991663;28;20065;-77
2024/02/26 13:33:25;;;;;;;14.27;2.67;;;;;;;;;;4973214;28;20042;-78
2024/02/26 13:35:52;;;;;;;16.02;2.63;;;;;;;;;;4993893;28;20044;-78
2024/02/26 13:38:19;;;;;;;20.95;2.45;;;;;;;;;;4976112;28;20045;-79
2024/02/26 13:40:46;;;;;;;10.10;1.90;;;;;;;;;;4993595;28;20038;-78
2024/02/26 13:43:13;;;;;;;11.95;2.20;;;;;;;;;;4991968;28;20049;-78
2024/02/26 13:45:40;;;;;;;13.98;2.22;;;;;;;;;;4989941;28;20042;-78
2024/02/26 13:48:11;;;;;;;16.50;2.97;;;;;;;;;;4982121;28;20043;-79
2024/02/26 13:50:39;;;;;;;14.68;2.50;;;;;;;;;;4974338;28;20030;-78
2024/02/26 13:53:06;;;;;;;10.43;2.33;;;;;;;;;;4974568;28;20129;-78
2024/02/26 13:55:33;;;;;;;20.45;2.67;;;;;;;;;;4991971;28;20042;-78
2024/02/26 13:58:03;;;;;;;16.75;2.22;;;;;;;;;;4973109;28;20035;-78
2024/02/26 14:00:34;;;;;;;12.15;1.95;;;;;;;;;;4993073;28;20057;-77
2024/02/26 14:03:02;;;;;;;12.68;2.55;;;;;;;;;;4975104;28;20034;-77
2024/02/26 14:05:30;;;;;;;11.60;1.80;;;;;;;;;;4991525;28;20120;-78
2024/02/26 14:07:57;;;;;;;13.48;2.05;;;;;;;;;;4992496;28;20489;-78
2024/02/26 14:10:24;;;;;;;17.13;1.92;;;;;;;;;;4975085;28;20481;-78
2024/02/26 14:12:51;;;;;;;11.18;2.35;;;;;;;;;;4992686;28;20043;-78
2024/02/26 14:15:18;;;;;;;12.73;2.10;;;;;;;;;;4992294;28;20385;-78
2024/02/26 14:17:45;;;;;;;20.88;2.65;;;;;;;;;;4992732;28;20535;-78
2024/02/26 14:20:12;;;;;;;12.77;2.50;;;;;;;;;;4992443;28;20496;-77
2024/02/26 14:22:39;;;;;;;12.98;2.28;;;;;;;;;;4989629;28;20100;-78
2024/02/26 14:25:09;;;;;;;14.15;2.28;;;;;;;;;;4992045;28;20054;-78
2024/02/26 14:27:36;;;;;;;11.82;2.42;;;;;;;;;;4991351;28;20124;-78
2024/02/26 14:30:04;;;;;;;16.25;2.17;;;;;;;;;;4993070;28;20509;-78
2024/02/26 14:32:34;;;;;;;9.98;2.00;;;;;;;;;;4991482;28;20050;-78
2024/02/26 14:35:02;;;;;;;12.98;2.33;;;;;;;;;;4989998;28;20061;-78
2024/02/26 14:37:29;;;;;;;16.43;2.33;;;;;;;;;;4992793;28;20109;-78